sensor_id;sensor_type;location;lat;lon;timestamp;P1;durP1;ratioP1;P2;durP2;ratioP2
75885;SDS011;64561;44.018;10.144;2023-08-06T00:00:41;5.03;;;1.70;;
75885;SDS011;64561;44.018;10.144;2023-08-06T00:03:09;3.72;;;1.73;;
75885;SDS011;64561;44.018;10.144;2023-08-06T00:05:36;3.33;;;1.55;;
75885;SDS011;64561;44.018;10.144;2023-08-06T00:08:03;4.70;;;1.63;;
75885;SDS011;64561;44.018;10.144;2023-08-06T00:10:30;4.97;;;1.80;;
75885;SDS011;64561;44.018;10.144;2023-08-06T00:12:57;3.45;;;1.60;;
75885;SDS011;64561;44.018;10.144;2023-08-06T00:15:24;2.65;;;1.73;;
75885;SDS011;64561;44.018;10.144;2023-08-06T00:17:52;3.72;;;1.80;;
75885;SDS011;64561;44.018;10.144;2023-08-06T00:20:19;2.90;;;1.60;;
75885;SDS011;64561;44.018;10.144;2023-08-06T00:22:47;2.55;;;1.58;;
75885;SDS011;64561;44.018;10.144;2023-08-06T00:25:14;4.25;;;1.60;;
75885;SDS011;64561;44.018;10.144;2023-08-06T00:27:41;6.20;;;1.50;;
75885;SDS011;64561;44.018;10.144;2023-08-06T00:30:08;3.88;;;1.60;;
75885;SDS011;64561;44.018;10.144;2023-08-06T00:32:36;2.67;;;1.45;;
75885;SDS011;64561;44.018;10.144;2023-08-06T00:35:03;2.38;;;1.50;;
75885;SDS011;64561;44.018;10.144;2023-08-06T00:37:31;2.72;;;1.42;;
75885;SDS011;64561;44.018;10.144;2023-08-06T00:39:58;3.90;;;1.60;;
75885;SDS011;64561;44.018;10.144;2023-08-06T00:42:26;4.45;;;1.50;;
75885;SDS011;64561;44.018;10.144;2023-08-06T00:44:53;3.70;;;1.40;;
75885;SDS011;64561;44.018;10.144;2023-08-06T00:47:20;2.78;;;1.30;;
75885;SDS011;64561;44.018;10.144;2023-08-06T00:49:47;2.10;;;1.08;;
75885;SDS011;64561;44.018;10.144;2023-08-06T00:52:14;4.07;;;1.27;;
75885;SDS011;64561;44.018;10.144;2023-08-06T00:54:41;4.50;;;1.33;;
75885;SDS011;64561;44.018;10.144;2023-08-06T00:57:09;5.32;;;1.60;;
75885;SDS011;64561;44.018;10.144;2023-08-06T00:59:36;2.38;;;1.30;;
75885;SDS011;64561;44.018;10.144;2023-08-06T01:02:04;1.67;;;1.10;;
75885;SDS011;64561;44.018;10.144;2023-08-06T01:04:32;2.95;;;1.45;;
75885;SDS011;64561;44.018;10.144;2023-08-06T01:15:41;4.00;;;1.45;;
75885;SDS011;64561;44.018;10.144;2023-08-06T01:18:10;2.92;;;1.27;;
75885;SDS011;64561;44.018;10.144;2023-08-06T01:20:37;3.88;;;1.55;;
75885;SDS011;64561;44.018;10.144;2023-08-06T01:23:04;2.72;;;1.40;;
75885;SDS011;64561;44.018;10.144;2023-08-06T01:28:34;4.32;;;1.30;;
75885;SDS011;64561;44.018;10.144;2023-08-06T01:31:04;4.15;;;1.30;;
75885;SDS011;64561;44.018;10.144;2023-08-06T01:33:37;5.22;;;1.73;;
75885;SDS011;64561;44.018;10.144;2023-08-06T01:36:11;7.65;;;1.77;;
75885;SDS011;64561;44.018;10.144;2023-08-06T01:38:39;3.70;;;1.55;;
75885;SDS011;64561;44.018;10.144;2023-08-06T01:41:06;3.35;;;1.60;;
75885;SDS011;64561;44.018;10.144;2023-08-06T01:43:33;5.10;;;1.52;;
75885;SDS011;64561;44.018;10.144;2023-08-06T01:46:00;4.32;;;1.65;;
75885;SDS011;64561;44.018;10.144;2023-08-06T01:48:28;4.10;;;1.50;;
75885;SDS011;64561;44.018;10.144;2023-08-06T01:50:55;3.22;;;1.30;;
75885;SDS011;64561;44.018;10.144;2023-08-06T01:53:22;2.63;;;1.58;;
75885;SDS011;64561;44.018;10.144;2023-08-06T01:55:51;4.75;;;1.80;;
75885;SDS011;64561;44.018;10.144;2023-08-06T01:58:18;3.72;;;1.55;;
75885;SDS011;64561;44.018;10.144;2023-08-06T02:00:45;2.33;;;1.55;;
75885;SDS011;64561;44.018;10.144;2023-08-06T02:03:13;4.05;;;2.13;;
75885;SDS011;64561;44.018;10.144;2023-08-06T02:05:40;5.32;;;1.80;;
75885;SDS011;64561;44.018;10.144;2023-08-06T02:08:08;4.93;;;1.80;;
75885;SDS011;64561;44.018;10.144;2023-08-06T02:10:35;3.38;;;1.70;;
75885;SDS011;64561;44.018;10.144;2023-08-06T02:13:02;3.30;;;1.80;;
75885;SDS011;64561;44.018;10.144;2023-08-06T02:15:29;3.08;;;1.80;;
75885;SDS011;64561;44.018;10.144;2023-08-06T02:17:56;3.53;;;1.70;;
75885;SDS011;64561;44.018;10.144;2023-08-06T02:20:43;3.15;;;1.52;;
75885;SDS011;64561;44.018;10.144;2023-08-06T02:23:10;4.30;;;1.70;;
75885;SDS011;64561;44.018;10.144;2023-08-06T02:25:37;2.80;;;1.60;;
75885;SDS011;64561;44.018;10.144;2023-08-06T02:28:04;3.88;;;2.28;;
75885;SDS011;64561;44.018;10.144;2023-08-06T02:30:32;3.45;;;1.70;;
75885;SDS011;64561;44.018;10.144;2023-08-06T02:32:59;4.05;;;2.03;;
75885;SDS011;64561;44.018;10.144;2023-08-06T02:35:26;4.43;;;1.70;;
75885;SDS011;64561;44.018;10.144;2023-08-06T02:37:54;3.72;;;1.92;;
75885;SDS011;64561;44.018;10.144;2023-08-06T02:40:21;4.00;;;1.80;;
75885;SDS011;64561;44.018;10.144;2023-08-06T02:42:49;3.08;;;1.73;;
75885;SDS011;64561;44.018;10.144;2023-08-06T02:45:16;5.65;;;1.90;;
75885;SDS011;64561;44.018;10.144;2023-08-06T02:47:43;2.85;;;1.90;;
75885;SDS011;64561;44.018;10.144;2023-08-06T02:50:10;3.50;;;1.80;;
75885;SDS011;64561;44.018;10.144;2023-08-06T02:52:38;3.80;;;2.00;;
75885;SDS011;64561;44.018;10.144;2023-08-06T02:55:07;5.00;;;1.88;;
75885;SDS011;64561;44.018;10.144;2023-08-06T02:57:40;6.72;;;2.00;;
75885;SDS011;64561;44.018;10.144;2023-08-06T03:00:07;3.88;;;1.60;;
75885;SDS011;64561;44.018;10.144;2023-08-06T03:02:34;3.85;;;2.40;;
75885;SDS011;64561;44.018;10.144;2023-08-06T03:05:22;7.00;;;2.08;;
75885;SDS011;64561;44.018;10.144;2023-08-06T03:07:49;6.03;;;2.17;;
75885;SDS011;64561;44.018;10.144;2023-08-06T03:10:23;4.75;;;2.20;;
75885;SDS011;64561;44.018;10.144;2023-08-06T03:12:53;9.38;;;2.42;;
75885;SDS011;64561;44.018;10.144;2023-08-06T03:15:22;6.95;;;2.20;;
75885;SDS011;64561;44.018;10.144;2023-08-06T03:17:50;9.02;;;2.20;;
75885;SDS011;64561;44.018;10.144;2023-08-06T03:20:20;5.18;;;1.95;;
75885;SDS011;64561;44.018;10.144;2023-08-06T03:22:47;6.57;;;2.50;;
75885;SDS011;64561;44.018;10.144;2023-08-06T03:25:14;6.82;;;2.30;;
75885;SDS011;64561;44.018;10.144;2023-08-06T03:27:46;8.13;;;2.78;;
75885;SDS011;64561;44.018;10.144;2023-08-06T03:30:16;7.45;;;3.13;;
75885;SDS011;64561;44.018;10.144;2023-08-06T03:32:43;10.38;;;2.80;;
75885;SDS011;64561;44.018;10.144;2023-08-06T03:35:11;9.55;;;3.13;;
75885;SDS011;64561;44.018;10.144;2023-08-06T03:37:38;12.27;;;3.38;;
75885;SDS011;64561;44.018;10.144;2023-08-06T03:40:06;11.13;;;3.30;;
75885;SDS011;64561;44.018;10.144;2023-08-06T03:42:34;8.35;;;2.72;;
75885;SDS011;64561;44.018;10.144;2023-08-06T03:45:01;12.55;;;3.72;;
75885;SDS011;64561;44.018;10.144;2023-08-06T03:47:30;8.50;;;2.65;;
75885;SDS011;64561;44.018;10.144;2023-08-06T03:49:58;9.48;;;3.00;;
75885;SDS011;64561;44.018;10.144;2023-08-06T03:52:25;8.05;;;3.10;;
75885;SDS011;64561;44.018;10.144;2023-08-06T03:54:52;8.80;;;3.17;;
75885;SDS011;64561;44.018;10.144;2023-08-06T03:57:19;7.47;;;3.40;;
75885;SDS011;64561;44.018;10.144;2023-08-06T03:59:47;8.85;;;3.20;;
75885;SDS011;64561;44.018;10.144;2023-08-06T04:02:23;10.75;;;2.55;;
75885;SDS011;64561;44.018;10.144;2023-08-06T04:04:50;10.10;;;2.97;;
75885;SDS011;64561;44.018;10.144;2023-08-06T04:07:20;9.73;;;2.70;;
75885;SDS011;64561;44.018;10.144;2023-08-06T04:09:54;5.88;;;2.83;;
75885;SDS011;64561;44.018;10.144;2023-08-06T04:12:24;10.27;;;3.50;;
75885;SDS011;64561;44.018;10.144;2023-08-06T04:14:52;12.20;;;3.80;;
75885;SDS011;64561;44.018;10.144;2023-08-06T04:17:20;10.68;;;4.22;;
75885;SDS011;64561;44.018;10.144;2023-08-06T04:19:49;12.15;;;5.25;;
75885;SDS011;64561;44.018;10.144;2023-08-06T04:22:18;10.52;;;4.15;;
75885;SDS011;64561;44.018;10.144;2023-08-06T04:24:46;10.45;;;4.07;;
75885;SDS011;64561;44.018;10.144;2023-08-06T04:27:14;10.25;;;3.72;;
75885;SDS011;64561;44.018;10.144;2023-08-06T04:29:43;8.15;;;3.78;;
75885;SDS011;64561;44.018;10.144;2023-08-06T04:32:10;17.48;;;4.65;;
75885;SDS011;64561;44.018;10.144;2023-08-06T04:34:44;10.55;;;3.67;;
75885;SDS011;64561;44.018;10.144;2023-08-06T04:37:11;9.32;;;3.65;;
75885;SDS011;64561;44.018;10.144;2023-08-06T04:39:38;7.70;;;3.55;;
75885;SDS011;64561;44.018;10.144;2023-08-06T04:42:06;9.23;;;3.13;;
75885;SDS011;64561;44.018;10.144;2023-08-06T04:44:33;12.43;;;3.85;;
75885;SDS011;64561;44.018;10.144;2023-08-06T04:47:00;9.55;;;3.55;;
75885;SDS011;64561;44.018;10.144;2023-08-06T04:49:28;8.07;;;3.28;;
75885;SDS011;64561;44.018;10.144;2023-08-06T04:51:55;9.15;;;3.28;;
75885;SDS011;64561;44.018;10.144;2023-08-06T04:54:22;16.75;;;3.20;;
75885;SDS011;64561;44.018;10.144;2023-08-06T04:56:49;12.88;;;3.60;;
75885;SDS011;64561;44.018;10.144;2023-08-06T04:59:16;13.07;;;3.45;;
75885;SDS011;64561;44.018;10.144;2023-08-06T05:01:43;7.75;;;2.92;;
75885;SDS011;64561;44.018;10.144;2023-08-06T05:04:10;12.38;;;3.08;;
75885;SDS011;64561;44.018;10.144;2023-08-06T05:06:37;9.38;;;3.92;;
75885;SDS011;64561;44.018;10.144;2023-08-06T05:09:05;9.00;;;3.83;;
75885;SDS011;64561;44.018;10.144;2023-08-06T05:11:33;9.45;;;3.85;;
75885;SDS011;64561;44.018;10.144;2023-08-06T05:14:00;7.13;;;3.25;;
75885;SDS011;64561;44.018;10.144;2023-08-06T05:16:27;12.55;;;3.92;;
75885;SDS011;64561;44.018;10.144;2023-08-06T05:18:55;8.10;;;3.03;;
75885;SDS011;64561;44.018;10.144;2023-08-06T05:21:22;12.57;;;4.25;;
75885;SDS011;64561;44.018;10.144;2023-08-06T05:23:52;7.72;;;3.30;;
75885;SDS011;64561;44.018;10.144;2023-08-06T05:26:19;6.32;;;2.78;;
75885;SDS011;64561;44.018;10.144;2023-08-06T05:28:46;10.85;;;2.88;;
75885;SDS011;64561;44.018;10.144;2023-08-06T05:31:13;10.15;;;3.05;;
75885;SDS011;64561;44.018;10.144;2023-08-06T05:33:40;11.32;;;3.17;;
75885;SDS011;64561;44.018;10.144;2023-08-06T05:36:08;10.13;;;3.40;;
75885;SDS011;64561;44.018;10.144;2023-08-06T05:38:35;8.95;;;3.17;;
75885;SDS011;64561;44.018;10.144;2023-08-06T05:41:02;8.98;;;4.53;;
75885;SDS011;64561;44.018;10.144;2023-08-06T05:43:29;13.52;;;5.63;;
75885;SDS011;64561;44.018;10.144;2023-08-06T05:45:56;13.30;;;6.93;;
75885;SDS011;64561;44.018;10.144;2023-08-06T05:48:24;19.92;;;8.25;;
75885;SDS011;64561;44.018;10.144;2023-08-06T05:50:51;17.83;;;7.15;;
75885;SDS011;64561;44.018;10.144;2023-08-06T05:53:19;17.60;;;6.80;;
75885;SDS011;64561;44.018;10.144;2023-08-06T05:55:46;20.05;;;5.78;;
75885;SDS011;64561;44.018;10.144;2023-08-06T05:58:14;9.82;;;4.47;;
75885;SDS011;64561;44.018;10.144;2023-08-06T06:00:41;12.63;;;3.95;;
75885;SDS011;64561;44.018;10.144;2023-08-06T06:03:09;14.90;;;3.88;;
75885;SDS011;64561;44.018;10.144;2023-08-06T06:05:39;11.55;;;3.65;;
75885;SDS011;64561;44.018;10.144;2023-08-06T06:08:06;11.98;;;3.20;;
75885;SDS011;64561;44.018;10.144;2023-08-06T06:10:33;8.00;;;3.80;;
75885;SDS011;64561;44.018;10.144;2023-08-06T06:13:00;8.95;;;3.25;;
75885;SDS011;64561;44.018;10.144;2023-08-06T06:15:27;9.02;;;3.92;;
75885;SDS011;64561;44.018;10.144;2023-08-06T06:17:54;10.27;;;3.13;;
75885;SDS011;64561;44.018;10.144;2023-08-06T06:20:21;12.25;;;3.47;;
75885;SDS011;64561;44.018;10.144;2023-08-06T06:22:49;10.35;;;3.75;;
75885;SDS011;64561;44.018;10.144;2023-08-06T06:25:16;6.90;;;2.85;;
75885;SDS011;64561;44.018;10.144;2023-08-06T06:27:43;14.18;;;4.03;;
75885;SDS011;64561;44.018;10.144;2023-08-06T06:30:10;20.05;;;4.40;;
75885;SDS011;64561;44.018;10.144;2023-08-06T06:32:39;10.73;;;3.30;;
75885;SDS011;64561;44.018;10.144;2023-08-06T06:35:07;9.82;;;2.97;;
75885;SDS011;64561;44.018;10.144;2023-08-06T06:37:35;9.02;;;3.70;;
75885;SDS011;64561;44.018;10.144;2023-08-06T06:40:02;8.50;;;3.33;;
75885;SDS011;64561;44.018;10.144;2023-08-06T06:42:30;13.07;;;3.60;;
75885;SDS011;64561;44.018;10.144;2023-08-06T06:45:00;10.32;;;2.70;;
75885;SDS011;64561;44.018;10.144;2023-08-06T06:47:30;9.18;;;3.03;;
75885;SDS011;64561;44.018;10.144;2023-08-06T06:49:57;13.45;;;3.60;;
75885;SDS011;64561;44.018;10.144;2023-08-06T06:52:24;12.40;;;3.08;;
75885;SDS011;64561;44.018;10.144;2023-08-06T06:54:51;9.98;;;2.90;;
75885;SDS011;64561;44.018;10.144;2023-08-06T06:57:19;12.57;;;3.20;;
75885;SDS011;64561;44.018;10.144;2023-08-06T06:59:46;12.07;;;4.03;;
75885;SDS011;64561;44.018;10.144;2023-08-06T07:02:17;10.73;;;2.90;;
75885;SDS011;64561;44.018;10.144;2023-08-06T07:07:11;10.38;;;2.85;;
75885;SDS011;64561;44.018;10.144;2023-08-06T07:09:38;9.27;;;2.80;;
75885;SDS011;64561;44.018;10.144;2023-08-06T07:12:05;9.70;;;3.58;;
75885;SDS011;64561;44.018;10.144;2023-08-06T07:14:33;10.50;;;2.85;;
75885;SDS011;64561;44.018;10.144;2023-08-06T07:17:03;11.75;;;3.70;;
75885;SDS011;64561;44.018;10.144;2023-08-06T07:19:30;16.25;;;3.05;;
75885;SDS011;64561;44.018;10.144;2023-08-06T07:21:57;9.85;;;3.05;;
75885;SDS011;64561;44.018;10.144;2023-08-06T07:24:25;6.32;;;2.40;;
75885;SDS011;64561;44.018;10.144;2023-08-06T07:26:52;12.70;;;3.08;;
75885;SDS011;64561;44.018;10.144;2023-08-06T07:29:19;8.63;;;2.83;;
75885;SDS011;64561;44.018;10.144;2023-08-06T07:31:48;6.88;;;2.83;;
75885;SDS011;64561;44.018;10.144;2023-08-06T07:34:17;9.40;;;3.10;;
75885;SDS011;64561;44.018;10.144;2023-08-06T07:36:45;7.10;;;2.92;;
75885;SDS011;64561;44.018;10.144;2023-08-06T07:39:13;12.65;;;3.75;;
75885;SDS011;64561;44.018;10.144;2023-08-06T07:41:40;9.45;;;2.80;;
75885;SDS011;64561;44.018;10.144;2023-08-06T07:44:08;11.23;;;3.78;;
75885;SDS011;64561;44.018;10.144;2023-08-06T07:46:35;9.23;;;2.85;;
75885;SDS011;64561;44.018;10.144;2023-08-06T07:49:02;9.57;;;3.20;;
75885;SDS011;64561;44.018;10.144;2023-08-06T07:51:29;11.27;;;3.63;;
75885;SDS011;64561;44.018;10.144;2023-08-06T07:53:59;8.32;;;3.03;;
75885;SDS011;64561;44.018;10.144;2023-08-06T07:56:26;12.23;;;2.88;;
75885;SDS011;64561;44.018;10.144;2023-08-06T07:58:55;8.25;;;2.65;;
75885;SDS011;64561;44.018;10.144;2023-08-06T08:01:22;11.13;;;3.28;;
75885;SDS011;64561;44.018;10.144;2023-08-06T08:03:50;9.32;;;2.90;;
75885;SDS011;64561;44.018;10.144;2023-08-06T08:06:17;8.95;;;2.50;;
75885;SDS011;64561;44.018;10.144;2023-08-06T08:08:44;11.25;;;2.90;;
75885;SDS011;64561;44.018;10.144;2023-08-06T08:11:11;9.77;;;2.70;;
75885;SDS011;64561;44.018;10.144;2023-08-06T08:13:38;13.07;;;3.22;;
75885;SDS011;64561;44.018;10.144;2023-08-06T08:16:05;11.65;;;3.15;;
75885;SDS011;64561;44.018;10.144;2023-08-06T08:18:34;10.55;;;2.85;;
75885;SDS011;64561;44.018;10.144;2023-08-06T08:21:01;13.10;;;3.47;;
75885;SDS011;64561;44.018;10.144;2023-08-06T08:23:28;9.45;;;3.08;;
75885;SDS011;64561;44.018;10.144;2023-08-06T08:25:55;7.30;;;2.50;;
75885;SDS011;64561;44.018;10.144;2023-08-06T08:28:22;9.43;;;2.63;;
75885;SDS011;64561;44.018;10.144;2023-08-06T08:30:50;11.98;;;3.28;;
75885;SDS011;64561;44.018;10.144;2023-08-06T08:33:17;7.53;;;2.75;;
75885;SDS011;64561;44.018;10.144;2023-08-06T08:35:45;9.73;;;2.70;;
75885;SDS011;64561;44.018;10.144;2023-08-06T08:38:13;10.52;;;2.85;;
75885;SDS011;64561;44.018;10.144;2023-08-06T08:40:44;11.05;;;2.92;;
75885;SDS011;64561;44.018;10.144;2023-08-06T08:43:16;7.68;;;2.97;;
75885;SDS011;64561;44.018;10.144;2023-08-06T08:45:49;7.10;;;2.53;;
75885;SDS011;64561;44.018;10.144;2023-08-06T08:48:18;9.65;;;3.05;;
75885;SDS011;64561;44.018;10.144;2023-08-06T08:50:46;10.25;;;3.17;;
75885;SDS011;64561;44.018;10.144;2023-08-06T08:53:16;10.38;;;3.08;;
75885;SDS011;64561;44.018;10.144;2023-08-06T08:55:46;12.30;;;3.70;;
75885;SDS011;64561;44.018;10.144;2023-08-06T08:58:14;11.27;;;3.08;;
75885;SDS011;64561;44.018;10.144;2023-08-06T09:00:42;7.50;;;2.83;;
75885;SDS011;64561;44.018;10.144;2023-08-06T09:03:11;11.55;;;3.25;;
75885;SDS011;64561;44.018;10.144;2023-08-06T09:05:39;9.43;;;2.83;;
75885;SDS011;64561;44.018;10.144;2023-08-06T09:08:12;12.63;;;3.28;;
75885;SDS011;64561;44.018;10.144;2023-08-06T09:10:44;7.50;;;3.05;;
75885;SDS011;64561;44.018;10.144;2023-08-06T09:13:14;9.95;;;3.60;;
75885;SDS011;64561;44.018;10.144;2023-08-06T09:15:41;8.77;;;3.10;;
75885;SDS011;64561;44.018;10.144;2023-08-06T09:18:11;11.93;;;3.20;;
75885;SDS011;64561;44.018;10.144;2023-08-06T09:20:39;14.13;;;3.42;;
75885;SDS011;64561;44.018;10.144;2023-08-06T09:23:09;12.43;;;3.10;;
75885;SDS011;64561;44.018;10.144;2023-08-06T09:25:40;13.30;;;3.90;;
75885;SDS011;64561;44.018;10.144;2023-08-06T09:30:35;8.63;;;3.33;;
75885;SDS011;64561;44.018;10.144;2023-08-06T09:33:07;7.68;;;3.17;;
75885;SDS011;64561;44.018;10.144;2023-08-06T09:35:39;7.63;;;3.10;;
75885;SDS011;64561;44.018;10.144;2023-08-06T09:38:07;11.80;;;2.95;;
75885;SDS011;64561;44.018;10.144;2023-08-06T09:43:04;11.32;;;3.22;;
75885;SDS011;64561;44.018;10.144;2023-08-06T09:48:03;9.60;;;2.78;;
75885;SDS011;64561;44.018;10.144;2023-08-06T09:50:32;10.77;;;3.10;;
75885;SDS011;64561;44.018;10.144;2023-08-06T09:53:05;6.57;;;2.70;;
75885;SDS011;64561;44.018;10.144;2023-08-06T09:55:34;9.32;;;2.83;;
75885;SDS011;64561;44.018;10.144;2023-08-06T09:58:02;7.68;;;3.17;;
75885;SDS011;64561;44.018;10.144;2023-08-06T10:00:29;10.52;;;2.72;;
75885;SDS011;64561;44.018;10.144;2023-08-06T10:03:03;10.15;;;3.08;;
75885;SDS011;64561;44.018;10.144;2023-08-06T10:05:31;6.70;;;2.90;;
75885;SDS011;64561;44.018;10.144;2023-08-06T10:07:59;9.05;;;2.75;;
75885;SDS011;64561;44.018;10.144;2023-08-06T10:10:27;12.15;;;3.30;;
75885;SDS011;64561;44.018;10.144;2023-08-06T10:12:56;14.38;;;3.40;;
75885;SDS011;64561;44.018;10.144;2023-08-06T10:15:26;8.68;;;2.97;;
75885;SDS011;64561;44.018;10.144;2023-08-06T10:17:57;10.27;;;2.80;;
75885;SDS011;64561;44.018;10.144;2023-08-06T10:20:26;11.82;;;3.25;;
75885;SDS011;64561;44.018;10.144;2023-08-06T10:23:00;13.35;;;3.40;;
75885;SDS011;64561;44.018;10.144;2023-08-06T10:25:32;13.43;;;3.70;;
75885;SDS011;64561;44.018;10.144;2023-08-06T10:28:07;8.88;;;2.67;;
75885;SDS011;64561;44.018;10.144;2023-08-06T10:30:43;10.95;;;3.13;;
75885;SDS011;64561;44.018;10.144;2023-08-06T10:33:11;15.05;;;3.88;;
75885;SDS011;64561;44.018;10.144;2023-08-06T10:35:48;14.50;;;3.90;;
75885;SDS011;64561;44.018;10.144;2023-08-06T10:38:17;16.88;;;3.60;;
75885;SDS011;64561;44.018;10.144;2023-08-06T10:43:27;10.15;;;3.63;;
75885;SDS011;64561;44.018;10.144;2023-08-06T10:46:00;11.43;;;3.78;;
75885;SDS011;64561;44.018;10.144;2023-08-06T10:51:07;13.25;;;3.58;;
75885;SDS011;64561;44.018;10.144;2023-08-06T10:53:36;15.63;;;4.80;;
75885;SDS011;64561;44.018;10.144;2023-08-06T10:58:41;8.60;;;2.97;;
75885;SDS011;64561;44.018;10.144;2023-08-06T11:01:09;14.80;;;3.83;;
75885;SDS011;64561;44.018;10.144;2023-08-06T11:03:40;9.52;;;3.15;;
75885;SDS011;64561;44.018;10.144;2023-08-06T11:06:08;13.82;;;3.80;;
75885;SDS011;64561;44.018;10.144;2023-08-06T11:08:36;11.80;;;3.95;;
75885;SDS011;64561;44.018;10.144;2023-08-06T11:11:12;12.95;;;3.97;;
75885;SDS011;64561;44.018;10.144;2023-08-06T11:13:41;14.32;;;4.97;;
75885;SDS011;64561;44.018;10.144;2023-08-06T11:16:09;15.07;;;4.68;;
75885;SDS011;64561;44.018;10.144;2023-08-06T11:18:37;45.25;;;20.90;;
75885;SDS011;64561;44.018;10.144;2023-08-06T11:21:04;16.33;;;6.90;;
75885;SDS011;64561;44.018;10.144;2023-08-06T11:23:32;28.10;;;11.90;;
75885;SDS011;64561;44.018;10.144;2023-08-06T11:26:02;31.23;;;13.20;;
75885;SDS011;64561;44.018;10.144;2023-08-06T11:28:30;33.78;;;13.57;;
75885;SDS011;64561;44.018;10.144;2023-08-06T11:30:57;12.77;;;4.00;;
75885;SDS011;64561;44.018;10.144;2023-08-06T11:33:28;13.50;;;4.07;;
75885;SDS011;64561;44.018;10.144;2023-08-06T11:35:55;10.00;;;3.63;;
75885;SDS011;64561;44.018;10.144;2023-08-06T11:38:25;11.93;;;3.45;;
75885;SDS011;64561;44.018;10.144;2023-08-06T11:40:53;12.98;;;4.35;;
75885;SDS011;64561;44.018;10.144;2023-08-06T11:43:21;12.10;;;3.92;;
75885;SDS011;64561;44.018;10.144;2023-08-06T11:45:49;11.30;;;2.95;;
75885;SDS011;64561;44.018;10.144;2023-08-06T11:48:18;12.85;;;3.38;;
75885;SDS011;64561;44.018;10.144;2023-08-06T11:50:46;15.73;;;3.63;;
75885;SDS011;64561;44.018;10.144;2023-08-06T11:53:13;11.52;;;3.58;;
75885;SDS011;64561;44.018;10.144;2023-08-06T11:55:42;13.20;;;3.75;;
75885;SDS011;64561;44.018;10.144;2023-08-06T11:58:10;11.38;;;3.22;;
75885;SDS011;64561;44.018;10.144;2023-08-06T12:00:38;11.07;;;4.28;;
75885;SDS011;64561;44.018;10.144;2023-08-06T12:03:06;7.68;;;3.33;;
75885;SDS011;64561;44.018;10.144;2023-08-06T12:05:33;10.43;;;3.47;;
75885;SDS011;64561;44.018;10.144;2023-08-06T12:08:01;10.05;;;3.50;;
75885;SDS011;64561;44.018;10.144;2023-08-06T12:10:29;9.88;;;3.75;;
75885;SDS011;64561;44.018;10.144;2023-08-06T12:12:58;12.48;;;3.55;;
75885;SDS011;64561;44.018;10.144;2023-08-06T12:15:25;12.25;;;3.85;;
75885;SDS011;64561;44.018;10.144;2023-08-06T12:17:52;19.02;;;4.03;;
75885;SDS011;64561;44.018;10.144;2023-08-06T12:20:19;10.07;;;3.95;;
75885;SDS011;64561;44.018;10.144;2023-08-06T12:22:46;11.88;;;4.03;;
75885;SDS011;64561;44.018;10.144;2023-08-06T12:25:13;10.15;;;3.30;;
75885;SDS011;64561;44.018;10.144;2023-08-06T12:27:41;9.48;;;2.72;;
75885;SDS011;64561;44.018;10.144;2023-08-06T12:30:09;10.55;;;3.83;;
75885;SDS011;64561;44.018;10.144;2023-08-06T12:32:38;10.15;;;3.50;;
75885;SDS011;64561;44.018;10.144;2023-08-06T12:35:05;14.23;;;3.17;;
75885;SDS011;64561;44.018;10.144;2023-08-06T12:37:34;14.88;;;3.65;;
75885;SDS011;64561;44.018;10.144;2023-08-06T12:40:02;8.93;;;3.17;;
75885;SDS011;64561;44.018;10.144;2023-08-06T12:42:50;8.88;;;3.45;;
75885;SDS011;64561;44.018;10.144;2023-08-06T12:45:20;10.20;;;3.33;;
75885;SDS011;64561;44.018;10.144;2023-08-06T12:47:51;9.25;;;2.88;;
75885;SDS011;64561;44.018;10.144;2023-08-06T12:50:21;9.27;;;3.22;;
75885;SDS011;64561;44.018;10.144;2023-08-06T12:52:54;20.83;;;3.67;;
75885;SDS011;64561;44.018;10.144;2023-08-06T12:55:24;12.73;;;3.20;;
75885;SDS011;64561;44.018;10.144;2023-08-06T12:57:51;12.77;;;3.53;;
75885;SDS011;64561;44.018;10.144;2023-08-06T13:00:25;9.55;;;3.05;;
75885;SDS011;64561;44.018;10.144;2023-08-06T13:02:55;9.85;;;2.88;;
75885;SDS011;64561;44.018;10.144;2023-08-06T13:05:23;13.88;;;3.28;;
75885;SDS011;64561;44.018;10.144;2023-08-06T13:07:50;8.07;;;3.03;;
75885;SDS011;64561;44.018;10.144;2023-08-06T13:10:17;10.43;;;2.83;;
75885;SDS011;64561;44.018;10.144;2023-08-06T13:12:45;11.07;;;3.40;;
75885;SDS011;64561;44.018;10.144;2023-08-06T13:15:13;9.25;;;2.83;;
75885;SDS011;64561;44.018;10.144;2023-08-06T13:17:41;12.48;;;3.47;;
75885;SDS011;64561;44.018;10.144;2023-08-06T13:20:09;10.63;;;3.45;;
75885;SDS011;64561;44.018;10.144;2023-08-06T13:22:37;11.45;;;3.03;;
75885;SDS011;64561;44.018;10.144;2023-08-06T13:25:04;12.68;;;3.42;;
75885;SDS011;64561;44.018;10.144;2023-08-06T13:27:31;11.13;;;3.40;;
75885;SDS011;64561;44.018;10.144;2023-08-06T13:29:58;8.95;;;3.20;;
75885;SDS011;64561;44.018;10.144;2023-08-06T13:32:25;12.52;;;3.03;;
75885;SDS011;64561;44.018;10.144;2023-08-06T13:34:53;10.93;;;3.72;;
75885;SDS011;64561;44.018;10.144;2023-08-06T13:37:20;13.82;;;3.75;;
75885;SDS011;64561;44.018;10.144;2023-08-06T13:39:47;9.23;;;3.10;;
75885;SDS011;64561;44.018;10.144;2023-08-06T13:42:14;8.75;;;2.80;;
75885;SDS011;64561;44.018;10.144;2023-08-06T13:44:41;7.90;;;3.35;;
75885;SDS011;64561;44.018;10.144;2023-08-06T13:47:10;11.02;;;3.10;;
75885;SDS011;64561;44.018;10.144;2023-08-06T13:49:37;13.60;;;3.60;;
75885;SDS011;64561;44.018;10.144;2023-08-06T13:52:04;12.25;;;2.90;;
75885;SDS011;64561;44.018;10.144;2023-08-06T13:54:48;9.70;;;3.05;;
75885;SDS011;64561;44.018;10.144;2023-08-06T13:57:15;9.98;;;3.92;;
75885;SDS011;64561;44.018;10.144;2023-08-06T13:59:44;12.00;;;3.42;;
75885;SDS011;64561;44.018;10.144;2023-08-06T14:02:12;14.20;;;3.03;;
75885;SDS011;64561;44.018;10.144;2023-08-06T14:04:39;9.50;;;2.90;;
75885;SDS011;64561;44.018;10.144;2023-08-06T14:07:07;15.52;;;3.47;;
75885;SDS011;64561;44.018;10.144;2023-08-06T14:09:34;11.25;;;3.50;;
75885;SDS011;64561;44.018;10.144;2023-08-06T14:12:02;9.73;;;3.53;;
75885;SDS011;64561;44.018;10.144;2023-08-06T14:14:30;11.98;;;3.50;;
75885;SDS011;64561;44.018;10.144;2023-08-06T14:16:57;8.73;;;2.72;;
75885;SDS011;64561;44.018;10.144;2023-08-06T14:19:25;8.80;;;2.92;;
75885;SDS011;64561;44.018;10.144;2023-08-06T14:21:52;7.47;;;3.35;;
75885;SDS011;64561;44.018;10.144;2023-08-06T14:24:20;13.13;;;4.40;;
75885;SDS011;64561;44.018;10.144;2023-08-06T14:26:47;9.05;;;3.25;;
75885;SDS011;64561;44.018;10.144;2023-08-06T14:29:15;11.85;;;3.10;;
75885;SDS011;64561;44.018;10.144;2023-08-06T14:31:44;7.75;;;2.47;;
75885;SDS011;64561;44.018;10.144;2023-08-06T14:34:11;8.85;;;2.13;;
75885;SDS011;64561;44.018;10.144;2023-08-06T14:36:38;6.85;;;2.95;;
75885;SDS011;64561;44.018;10.144;2023-08-06T14:39:06;11.15;;;3.40;;
75885;SDS011;64561;44.018;10.144;2023-08-06T14:41:33;7.15;;;2.35;;
75885;SDS011;64561;44.018;10.144;2023-08-06T14:44:00;12.82;;;2.70;;
75885;SDS011;64561;44.018;10.144;2023-08-06T14:46:28;8.02;;;2.50;;
75885;SDS011;64561;44.018;10.144;2023-08-06T14:48:55;9.68;;;2.35;;
75885;SDS011;64561;44.018;10.144;2023-08-06T14:51:22;9.00;;;2.83;;
75885;SDS011;64561;44.018;10.144;2023-08-06T14:53:50;8.13;;;2.22;;
75885;SDS011;64561;44.018;10.144;2023-08-06T14:56:17;11.60;;;2.60;;
75885;SDS011;64561;44.018;10.144;2023-08-06T14:58:44;8.23;;;2.30;;
75885;SDS011;64561;44.018;10.144;2023-08-06T15:01:12;8.68;;;2.35;;
75885;SDS011;64561;44.018;10.144;2023-08-06T15:03:39;7.78;;;2.45;;